Time;durP1;ratioP1;P1;durP2;ratioP2;P2;SDS_P1;SDS_P2;PMS_P1;PMS_P2;Temp;Humidity;BMP_temperature;BMP_pressure;BME280_temperature;BME280_humidity;BME280_pressure;Samples;Min_cycle;Max_cycle;Signal;HPM_P1;HPM_P2
2022/01/26 00:07:41;;;;;;;5.95;5.43;;;;;;;3.38;100.00;103410.00;5006050;28;20116;-69
2022/01/26 00:10:06;;;;;;;7.40;5.03;;;;;;;3.28;100.00;103402.72;5000133;28;20484;-69
2022/01/26 00:12:32;;;;;;;8.68;6.03;;;;;;;3.26;100.00;103400.06;5009182;28;20026;-69
2022/01/26 00:14:57;;;;;;;9.88;6.03;;;;;;;3.24;100.00;103399.13;5015842;28;20040;-70
2022/01/26 00:17:22;;;;;;;7.10;4.82;;;;;;;3.26;100.00;103388.66;5013670;28;20037;-70
2022/01/26 00:19:57;;;;;;;7.95;5.78;;;;;;;3.26;100.00;103393.91;5015777;28;20025;-70
2022/01/26 00:41:04;;;;;;;10.77;6.22;;;;;;;3.17;100.00;103363.91;5016664;28;20038;-70
2022/01/26 00:43:29;;;;;;;8.80;6.25;;;;;;;3.30;100.00;103377.38;5019929;28;20017;-70
2022/01/26 00:45:57;;;;;;;15.18;7.45;;;;;;;3.26;100.00;103373.81;5016827;28;20055;-70
2022/01/26 00:48:23;;;;;;;9.93;8.93;;;;;;;3.35;100.00;103370.50;5016170;28;20022;-71
2022/01/26 00:50:51;;;;;;;11.55;7.28;;;;;;;3.28;100.00;103376.47;5015625;28;20547;-70
2022/01/26 00:53:19;;;;;;;6.43;5.40;;;;;;;3.25;100.00;103379.00;5015720;28;20022;-70
2022/01/26 00:55:44;;;;;;;11.02;6.85;;;;;;;3.24;100.00;103371.97;5014286;28;20030;-69
2022/01/26 00:58:10;;;;;;;10.40;6.30;;;;;;;3.24;100.00;103374.59;5014846;28;20164;-69
2022/01/26 01:00:35;;;;;;;7.57;6.65;;;;;;;3.23;100.00;103364.94;5013388;28;20382;-70
2022/01/26 01:03:01;;;;;;;12.18;5.95;;;;;;;3.17;100.00;103363.03;5015041;28;20552;-69
2022/01/26 01:05:34;;;;;;;9.80;6.78;;;;;;;3.25;100.00;103355.38;5015227;28;20026;-69
2022/01/26 01:08:08;;;;;;;12.73;7.65;;;;;;;3.18;100.00;103347.31;5013463;28;20030;-69
2022/01/26 01:10:33;;;;;;;6.07;5.53;;;;;;;3.14;100.00;103345.47;5013734;28;20030;-69
2022/01/26 01:13:00;;;;;;;8.07;7.50;;;;;;;3.21;100.00;103338.66;5014638;28;20040;-70
2022/01/26 01:15:27;;;;;;;9.38;4.45;;;;;;;3.12;100.00;103344.53;5015268;28;20033;-71
2022/01/26 01:18:03;;;;;;;9.60;6.97;;;;;;;3.02;100.00;103346.88;5014901;28;20030;-69
2022/01/26 01:23:31;;;;;;;4.97;4.55;;;;;;;3.23;100.00;103330.81;5015049;28;20048;-69
2022/01/26 01:31:13;;;;;;;5.07;4.68;;;;;;;3.16;100.00;103324.50;5014896;28;20049;-69
2022/01/26 01:33:43;;;;;;;5.95;5.20;;;;;;;3.03;100.00;103323.28;5015089;28;20034;-69
2022/01/26 01:36:11;;;;;;;6.00;5.15;;;;;;;3.02;100.00;103337.25;5013456;28;20061;-70
2022/01/26 01:38:40;;;;;;;7.60;7.10;;;;;;;3.13;100.00;103335.81;5014015;28;20093;-70
2022/01/26 01:41:10;;;;;;;7.43;4.82;;;;;;;3.00;100.00;103323.19;5009551;28;20022;-70
2022/01/26 01:43:37;;;;;;;;;;;;;;;2.96;100.00;103326.56;5013878;28;20040;-69
2022/01/26 01:46:08;;;;;;;5.22;4.78;;;;;;;2.97;100.00;103323.13;5013365;28;19909;-69
2022/01/26 01:48:34;;;;;;;8.15;7.07;;;;;;;2.85;100.00;103320.13;5014636;28;20018;-69
2022/01/26 01:51:05;;;;;;;7.00;5.55;;;;;;;2.87;100.00;103307.94;5013261;28;20365;-69
2022/01/26 01:53:39;;;;;;;7.10;6.38;;;;;;;2.87;100.00;103309.66;5014626;28;20021;-69
2022/01/26 01:56:08;;;;;;;6.85;6.35;;;;;;;2.89;100.00;103297.50;5015241;28;20026;-69
2022/01/26 01:58:33;;;;;;;5.43;4.50;;;;;;;2.89;100.00;103301.00;5014629;28;20029;-68
2022/01/26 02:00:59;;;;;;;6.20;5.75;;;;;;;2.88;100.00;103296.59;5013072;28;20029;-69
2022/01/26 02:03:25;;;;;;;6.65;6.25;;;;;;;2.89;100.00;103298.38;5014856;28;20079;-69
2022/01/26 02:05:50;;;;;;;9.00;6.90;;;;;;;2.88;100.00;103282.59;5013023;28;20034;-69
2022/01/26 02:08:16;;;;;;;6.80;6.30;;;;;;;2.93;100.00;103284.50;5014197;28;20392;-69
2022/01/26 02:10:42;;;;;;;9.13;8.40;;;;;;;2.93;100.00;103289.72;5012762;28;20026;-69
2022/01/26 02:13:49;;;;;;;7.13;6.30;;;;;;;2.91;100.00;103296.69;5014427;28;20045;-69
2022/01/26 02:16:12;;;;;;;8.48;7.32;;;;;;;2.97;100.00;103295.97;4994177;28;20224;-69
2022/01/26 02:56:22;;;;;;;4.70;4.40;;;;;;;3.17;100.00;103262.38;5017660;28;20034;-70
2022/01/26 03:01:56;;;;;;;7.10;6.45;;;;;;;3.13;100.00;103262.31;5017392;28;20048;-70
2022/01/26 03:09:38;;;;;;;6.32;5.93;;;;;;;3.03;100.00;103246.25;5017555;28;20036;-70
2022/01/26 03:12:05;;;;;;;7.90;7.38;;;;;;;2.92;100.00;103245.97;5017609;28;20033;-70
2022/01/26 03:17:06;;;;;;;5.75;5.38;;;;;;;3.00;100.00;103231.31;5017181;28;20069;-70
2022/01/26 03:19:39;;;;;;;6.28;5.88;;;;;;;3.00;100.00;103223.44;5015825;28;20045;-70
2022/01/26 03:33:25;;;;;;;6.47;6.05;;;;;;;2.91;100.00;103249.47;5017893;28;20132;-70
2022/01/26 03:35:54;;;;;;;5.25;4.72;;;;;;;2.87;100.00;103242.34;5015833;28;20052;-71
2022/01/26 03:38:24;;;;;;;4.72;4.40;;;;;;;3.00;100.00;103228.69;5017410;28;20373;-70
2022/01/26 03:41:00;;;;;;;8.25;7.70;;;;;;;3.00;100.00;103233.03;5017468;28;20481;-71
2022/01/26 03:43:26;;;;;;;5.80;5.40;;;;;;;3.05;100.00;103226.19;5016311;28;20056;-71
2022/01/26 03:45:51;;;;;;;8.75;8.07;;;;;;;2.99;100.00;103216.41;5017322;28;20030;-70
2022/01/26 03:48:16;;;;;;;10.18;8.80;;;;;;;2.97;100.00;103222.47;5015276;28;20481;-71
2022/01/26 03:50:41;;;;;;;6.55;6.13;;;;;;;2.97;100.00;103233.88;5016449;28;20044;-70
2022/01/26 03:53:07;;;;;;;5.45;4.95;;;;;;;2.90;100.00;103218.78;5014927;28;20140;-70
2022/01/26 03:55:32;;;;;;;8.27;7.07;;;;;;;2.83;100.00;103219.50;5015424;28;20040;-70
2022/01/26 03:57:57;;;;;;;4.90;4.43;;;;;;;2.97;100.00;103233.88;5015382;28;20493;-70
2022/01/26 04:00:23;;;;;;;5.07;4.78;;;;;;;2.95;100.00;103242.53;5014846;28;20481;-70
2022/01/26 04:02:48;;;;;;;10.07;9.38;;;;;;;2.99;100.00;103253.16;5016164;28;20052;-71
2022/01/26 04:05:14;;;;;;;6.32;5.93;;;;;;;3.07;100.00;103253.38;5014807;28;20029;-70
2022/01/26 04:07:41;;;;;;;7.82;7.30;;;;;;;3.06;100.00;103262.97;5016169;28;20025;-70
2022/01/26 04:10:27;;;;;;;6.60;6.20;;;;;;;3.12;100.00;103244.75;5016582;28;20025;-70
2022/01/26 04:12:52;;;;;;;6.28;5.82;;;;;;;3.07;100.00;103263.88;5016845;28;20037;-70
2022/01/26 04:15:26;;;;;;;6.70;6.20;;;;;;;3.12;100.00;103260.50;5016460;28;20385;-70
2022/01/26 04:17:51;;;;;;;5.63;5.32;;;;;;;2.97;100.00;103267.09;5015381;28;20465;-69
2022/01/26 04:20:17;;;;;;;6.60;6.22;;;;;;;3.05;100.00;103278.69;5016367;28;20129;-70
2022/01/26 04:22:53;;;;;;;9.30;8.45;;;;;;;2.99;100.00;103268.03;5014300;28;20030;-70
2022/01/26 04:25:22;;;;;;;8.27;7.57;;;;;;;3.02;100.00;103278.59;5015903;28;20038;-70
2022/01/26 04:27:51;;;;;;;6.10;5.75;;;;;;;2.97;100.00;103289.00;5015780;28;20456;-71
2022/01/26 04:30:17;;;;;;;6.45;6.05;;;;;;;3.02;100.00;103287.38;5015892;28;20022;-70
2022/01/26 04:32:42;;;;;;;7.25;6.72;;;;;;;3.02;100.00;103279.50;5015590;28;20122;-71
2022/01/26 04:35:09;;;;;;;7.60;6.80;;;;;;;3.00;100.00;103264.53;5015347;28;20076;-70
2022/01/26 04:40:18;;;;;;;9.45;8.57;;;;;;;3.03;100.00;103234.03;5016356;28;20113;-70
2022/01/26 04:42:57;;;;;;;6.25;5.85;;;;;;;2.97;100.00;103231.25;5015398;28;20522;-70
2022/01/26 04:45:22;;;;;;;6.55;6.05;;;;;;;3.03;100.00;103220.91;5014027;28;20037;-70
2022/01/26 04:47:48;;;;;;;7.63;7.10;;;;;;;2.90;100.00;103205.66;5015258;28;20048;-70
2022/01/26 04:50:13;;;;;;;9.45;8.73;;;;;;;2.98;100.00;103216.34;5015051;28;20507;-70
2022/01/26 04:52:39;;;;;;;6.97;6.57;;;;;;;3.02;100.00;103223.47;5015454;28;20109;-70
2022/01/26 04:55:05;;;;;;;8.55;7.38;;;;;;;2.98;100.00;103239.97;5013815;28;20053;-70
2022/01/26 04:57:30;;;;;;;6.95;6.45;;;;;;;3.04;100.00;103238.41;5015098;28;20037;-70
2022/01/26 04:59:55;;;;;;;7.53;7.03;;;;;;;2.98;100.00;103225.13;5015331;28;20029;-70
2022/01/26 05:02:21;;;;;;;8.45;7.68;;;;;;;2.98;100.00;103233.00;5014004;28;20033;-70
2022/01/26 05:04:46;;;;;;;6.72;5.85;;;;;;;3.01;100.00;103240.97;5012959;28;20108;-70
2022/01/26 05:07:11;;;;;;;5.50;5.10;;;;;;;3.15;100.00;103233.47;5013695;28;20034;-70
2022/01/26 05:09:37;;;;;;;5.95;5.60;;;;;;;3.14;100.00;103226.41;5014848;28;20026;-70
2022/01/26 05:12:03;;;;;;;5.65;5.35;;;;;;;3.23;100.00;103216.13;5013144;28;20018;-70
2022/01/26 05:14:28;;;;;;;7.50;6.15;;;;;;;3.25;100.00;103218.81;5014970;28;20033;-70
2022/01/26 05:16:54;;;;;;;9.93;5.65;;;;;;;3.21;100.00;103207.34;5013566;28;20029;-70
2022/01/26 05:19:19;;;;;;;7.72;7.05;;;;;;;3.26;100.00;103199.59;5014729;28;20033;-70
2022/01/26 05:21:45;;;;;;;6.07;5.65;;;;;;;3.33;100.00;103199.75;5014835;28;20030;-71
2022/01/26 05:24:10;;;;;;;6.85;6.38;;;;;;;3.41;100.00;103200.84;5013501;28;20030;-69
2022/01/26 05:26:38;;;;;;;6.45;6.05;;;;;;;3.46;100.00;103203.56;5013867;28;20114;-72
2022/01/26 05:29:03;;;;;;;6.10;5.60;;;;;;;3.30;100.00;103202.31;5013323;28;20026;-71
2022/01/26 05:31:29;;;;;;;7.85;5.80;;;;;;;3.42;100.00;103207.00;5013609;28;20032;-70
2022/01/26 05:33:54;;;;;;;5.22;4.93;;;;;;;3.46;100.00;103188.72;5016016;28;20026;-71
2022/01/26 05:36:20;;;;;;;6.18;5.68;;;;;;;3.46;100.00;103187.81;5014055;28;20026;-70
2022/01/26 05:38:45;;;;;;;7.72;4.47;;;;;;;3.60;100.00;103194.25;5015311;28;20047;-71
2022/01/26 05:41:11;;;;;;;5.78;5.35;;;;;;;3.57;100.00;103187.22;5014087;28;20030;-74
2022/01/26 05:43:36;;;;;;;5.20;4.85;;;;;;;3.56;100.00;103190.69;5013867;28;20093;-71
2022/01/26 05:46:10;;;;;;;4.60;4.32;;;;;;;3.64;100.00;103199.63;5014935;28;20088;-70
2022/01/26 05:48:38;;;;;;;4.47;4.15;;;;;;;3.69;100.00;103212.91;5013128;28;20389;-70
2022/01/26 05:51:06;;;;;;;5.63;5.25;;;;;;;3.71;100.00;103205.91;5014648;28;20029;-69
2022/01/26 05:53:33;;;;;;;4.28;4.03;;;;;;;3.64;100.00;103198.75;5014427;28;20025;-69
2022/01/26 05:55:59;;;;;;;3.53;3.33;;;;;;;3.59;100.00;103201.28;5014563;28;20026;-70
2022/01/26 05:58:25;;;;;;;5.05;4.68;;;;;;;3.66;100.00;103213.69;5009756;28;20030;-73
2022/01/26 06:00:50;;;;;;;4.18;3.83;;;;;;;3.63;100.00;103218.88;5007018;28;20022;-71
2022/01/26 06:03:16;;;;;;;6.50;5.93;;;;;;;3.53;100.00;103227.38;5011899;28;20033;-72
2022/01/26 06:05:41;;;;;;;4.78;4.50;;;;;;;3.55;100.00;103236.19;5013891;28;20087;-70
2022/01/26 06:08:07;;;;;;;4.78;4.47;;;;;;;3.59;100.00;103245.06;5005234;28;20504;-73
2022/01/26 06:10:33;;;;;;;5.15;4.80;;;;;;;3.58;100.00;103243.28;5001791;28;20030;-71
2022/01/26 06:12:58;;;;;;;5.22;4.93;;;;;;;3.59;100.00;103245.94;5016060;28;20022;-70
2022/01/26 06:15:24;;;;;;;4.05;3.78;;;;;;;3.57;100.00;103244.13;5014227;28;20038;-75
2022/01/26 06:17:49;;;;;;;6.53;5.95;;;;;;;3.46;100.00;103229.84;5002277;28;20143;-71
2022/01/26 06:20:14;;;;;;;7.18;6.35;;;;;;;3.62;100.00;103216.22;5004628;28;20026;-70
2022/01/26 06:22:39;;;;;;;4.90;4.57;;;;;;;3.40;100.00;103220.09;5009670;28;20053;-71
2022/01/26 06:25:07;;;;;;;5.97;5.60;;;;;;;3.35;100.00;103215.56;4999485;28;20179;-70
2022/01/26 06:27:34;;;;;;;4.25;4.03;;;;;;;3.34;100.00;103208.53;5011340;28;20053;-73
2022/01/26 06:29:59;;;;;;;4.13;3.92;;;;;;;3.35;100.00;103199.78;5020296;28;20135;-70
2022/01/26 06:32:24;;;;;;;7.30;6.80;;;;;;;3.33;100.00;103194.50;5017894;28;20033;-70
2022/01/26 06:34:50;;;;;;;5.72;5.32;;;;;;;3.16;100.00;103195.84;5019071;28;20026;-70
2022/01/26 06:37:16;;;;;;;4.38;4.15;;;;;;;3.30;100.00;103193.53;5018913;28;20026;-71
2022/01/26 06:39:42;;;;;;;5.68;3.85;;;;;;;3.32;100.00;103203.25;5017237;28;20041;-70
2022/01/26 06:42:13;;;;;;;6.78;6.20;;;;;;;3.28;100.00;103197.88;5016710;28;20040;-70
2022/01/26 06:44:50;;;;;;;5.70;5.40;;;;;;;3.36;100.00;103196.34;5016823;28;20565;-70
2022/01/26 06:47:31;;;;;;;4.30;3.95;;;;;;;3.40;100.00;103203.44;5016631;28;20018;-71
2022/01/26 06:49:57;;;;;;;5.40;5.10;;;;;;;3.40;100.00;103208.69;5012994;28;20034;-70
2022/01/26 06:52:22;;;;;;;4.25;4.05;;;;;;;3.41;100.00;103215.69;4997816;28;20549;-71
2022/01/26 06:54:47;;;;;;;6.28;5.90;;;;;;;3.37;100.00;103227.00;4998604;28;20130;-71
2022/01/26 06:57:13;;;;;;;3.83;3.45;;;;;;;3.28;100.00;103226.78;5017636;28;20133;-70
2022/01/26 06:59:38;;;;;;;5.47;5.05;;;;;;;3.43;100.00;103229.75;5016355;28;20393;-72
2022/01/26 07:02:03;;;;;;;3.90;3.70;;;;;;;3.31;100.00;103221.59;5018273;28;20038;-69
2022/01/26 07:04:29;;;;;;;3.40;3.20;;;;;;;3.28;100.00;103222.38;5020641;28;20041;-70
2022/01/26 07:06:54;;;;;;;3.88;3.45;;;;;;;3.33;100.00;103217.25;5017958;28;20033;-70
2022/01/26 07:09:20;;;;;;;6.03;5.30;;;;;;;3.22;100.00;103222.25;5018138;28;20152;-70
2022/01/26 07:11:46;;;;;;;4.03;3.80;;;;;;;3.26;100.00;103225.84;5010803;28;20041;-69
2022/01/26 07:14:21;;;;;;;5.68;5.28;;;;;;;3.24;100.00;103222.28;5004777;28;20022;-69
2022/01/26 07:19:50;;;;;;;4.65;4.35;;;;;;;3.42;100.00;103228.88;5011023;28;20046;-69
2022/01/26 07:22:16;;;;;;;3.47;3.28;;;;;;;3.29;100.00;103220.66;5015317;28;20121;-70
2022/01/26 07:24:41;;;;;;;4.75;3.72;;;;;;;3.28;100.00;103239.91;5014600;28;20065;-70
2022/01/26 07:27:09;;;;;;;6.32;5.85;;;;;;;3.35;100.00;103242.72;5004820;28;20509;-70
2022/01/26 07:29:35;;;;;;;4.63;4.30;;;;;;;3.37;100.00;103241.03;5002056;28;20026;-70
2022/01/26 07:32:02;;;;;;;5.85;5.18;;;;;;;3.42;100.00;103262.16;5016662;28;20038;-70
2022/01/26 07:34:27;;;;;;;3.70;3.40;;;;;;;3.48;100.00;103271.06;5006515;28;20040;-70
2022/01/26 07:36:58;;;;;;;4.95;4.65;;;;;;;3.51;100.00;103265.00;5008547;28;20026;-70
2022/01/26 07:39:41;;;;;;;8.63;5.15;;;;;;;3.40;100.00;103261.22;5005915;28;20030;-70
2022/01/26 07:42:08;;;;;;;5.90;5.43;;;;;;;3.43;100.00;103263.91;5006406;28;20370;-69
2022/01/26 07:44:33;;;;;;;4.68;4.03;;;;;;;3.53;100.00;103252.78;4997071;28;20101;-70
2022/01/26 07:46:58;;;;;;;4.72;4.43;;;;;;;3.62;100.00;103256.53;5014066;28;20454;-69
2022/01/26 07:49:23;;;;;;;4.78;4.47;;;;;;;3.52;100.00;103253.63;5004981;28;20038;-69
2022/01/26 07:51:50;;;;;;;6.32;5.88;;;;;;;3.53;100.00;103258.06;4997544;28;20030;-70
2022/01/26 07:54:18;;;;;;;5.00;4.60;;;;;;;3.47;100.00;103257.91;4996084;28;20026;-69
2022/01/26 07:56:44;;;;;;;5.40;4.97;;;;;;;3.46;100.00;103257.00;5002000;28;20469;-71
2022/01/26 07:59:09;;;;;;;6.22;5.65;;;;;;;3.40;100.00;103253.34;5020682;28;20029;-70
2022/01/26 08:01:35;;;;;;;4.22;3.90;;;;;;;3.47;100.00;103250.03;5018740;28;20114;-70
2022/01/26 08:04:02;;;;;;;4.65;4.35;;;;;;;3.57;100.00;103254.63;5001671;28;20034;-71
2022/01/26 08:06:27;;;;;;;4.28;3.80;;;;;;;3.53;100.00;103248.41;5018532;28;20032;-69
2022/01/26 08:08:53;;;;;;;8.20;7.55;;;;;;;3.49;100.00;103256.19;5017885;28;20116;-68
2022/01/26 08:11:18;;;;;;;6.22;5.72;;;;;;;3.42;100.00;103249.88;5013950;28;20117;-73
2022/01/26 08:13:44;;;;;;;4.18;3.88;;;;;;;3.56;100.00;103252.88;5011920;28;20030;-70
2022/01/26 08:16:09;;;;;;;6.20;5.70;;;;;;;3.50;100.00;103256.22;5006099;28;20033;-68
2022/01/26 08:18:35;;;;;;;5.30;5.00;;;;;;;3.65;100.00;103250.44;5018083;28;20029;-71
2022/01/26 08:21:05;;;;;;;3.80;3.60;;;;;;;3.54;100.00;103250.19;5014126;28;20041;-71
2022/01/26 08:23:30;;;;;;;9.98;5.07;;;;;;;3.54;100.00;103246.69;5010628;28;20397;-70
2022/01/26 08:25:55;;;;;;;4.00;3.70;;;;;;;3.50;100.00;103245.69;5004263;28;20034;-69
2022/01/26 08:28:27;;;;;;;4.47;4.18;;;;;;;3.49;100.00;103240.41;5011093;28;20060;-69
2022/01/26 08:30:53;;;;;;;8.48;5.65;;;;;;;3.54;100.00;103239.69;5000681;28;20032;-68
2022/01/26 08:33:18;;;;;;;5.03;4.72;;;;;;;3.74;100.00;103250.66;5009523;28;20073;-69
2022/01/26 08:35:45;;;;;;;4.90;4.45;;;;;;;3.52;100.00;103251.00;5005566;28;20021;-70
2022/01/26 08:38:10;;;;;;;4.45;3.75;;;;;;;3.72;100.00;103247.13;5012465;28;20056;-70
2022/01/26 08:40:36;;;;;;;4.32;4.03;;;;;;;3.63;100.00;103250.41;5017927;28;20049;-71
2022/01/26 08:43:02;;;;;;;4.07;3.78;;;;;;;3.83;100.00;103248.25;5003329;28;20037;-69
2022/01/26 08:45:29;;;;;;;7.22;6.50;;;;;;;3.77;100.00;103246.38;5014686;28;20029;-69
2022/01/26 08:47:55;;;;;;;5.10;4.80;;;;;;;3.72;100.00;103257.63;5003420;28;20547;-69
2022/01/26 08:50:20;;;;;;;4.97;3.58;;;;;;;3.70;100.00;103251.44;4996260;28;20027;-69
2022/01/26 08:52:47;;;;;;;4.05;3.75;;;;;;;3.80;100.00;103258.72;5004877;28;20481;-70
2022/01/26 08:55:13;;;;;;;4.80;4.43;;;;;;;3.78;100.00;103253.38;5014418;28;20026;-70
2022/01/26 08:57:38;;;;;;;4.47;4.07;;;;;;;3.79;100.00;103254.28;5006467;28;20117;-70
2022/01/26 09:00:07;;;;;;;4.82;4.53;;;;;;;3.84;100.00;103247.41;5000665;28;20026;-71
2022/01/26 09:02:33;;;;;;;3.63;3.42;;;;;;;3.84;100.00;103250.94;5017353;28;20473;-70
2022/01/26 09:04:58;;;;;;;3.50;3.30;;;;;;;3.90;100.00;103244.91;4994770;28;20065;-69
2022/01/26 09:07:24;;;;;;;3.97;3.72;;;;;;;3.88;100.00;103252.75;4995829;28;20541;-69
2022/01/26 09:09:49;;;;;;;4.82;4.53;;;;;;;3.79;100.00;103246.41;5000650;28;20390;-71
2022/01/26 09:12:18;;;;;;;5.72;5.28;;;;;;;3.73;100.00;103251.53;5011750;28;20038;-70
2022/01/26 09:14:52;;;;;;;4.10;3.90;;;;;;;3.93;100.00;103245.88;4999050;28;20457;-69
2022/01/26 09:17:19;;;;;;;3.65;3.42;;;;;;;4.01;100.00;103248.66;5013490;28;20025;-69
2022/01/26 09:19:45;;;;;;;5.53;5.13;;;;;;;4.05;100.00;103245.28;5015439;28;20022;-70
2022/01/26 09:22:13;;;;;;;5.82;5.25;;;;;;;4.17;100.00;103241.16;5014157;28;20061;-69
2022/01/26 09:24:41;;;;;;;6.50;4.45;;;;;;;3.98;100.00;103243.34;4998933;28;20018;-69
2022/01/26 09:27:08;;;;;;;4.40;4.10;;;;;;;4.09;100.00;103234.84;4995348;28;20062;-69
2022/01/26 09:29:34;;;;;;;4.43;4.13;;;;;;;4.18;100.00;103248.19;4995456;28;20026;-69
2022/01/26 09:32:01;;;;;;;3.17;2.90;;;;;;;4.17;100.00;103245.53;4994206;28;20034;-69
2022/01/26 09:34:30;;;;;;;5.25;4.75;;;;;;;4.23;100.00;103257.06;4995401;28;20030;-69
2022/01/26 09:36:57;;;;;;;3.78;3.47;;;;;;;4.37;100.00;103244.19;4997953;28;20045;-69
2022/01/26 09:39:23;;;;;;;4.45;4.18;;;;;;;4.35;100.00;103245.91;4999174;28;20027;-69
2022/01/26 09:41:50;;;;;;;1999.90;999.90;;;;;;;4.43;100.00;103239.06;4993386;28;20090;-69
2022/01/26 09:44:17;;;;;;;1999.90;999.90;;;;;;;4.33;100.00;103231.84;5003176;28;20045;-69
2022/01/26 09:46:44;;;;;;;1999.90;999.90;;;;;;;4.39;100.00;103238.13;4998342;28;20027;-70
2022/01/26 09:49:10;;;;;;;1999.90;999.90;;;;;;;4.33;100.00;103253.75;5013400;28;20117;-69
2022/01/26 09:51:41;;;;;;;1999.90;999.90;;;;;;;4.41;100.00;103251.31;5009583;28;20084;-69
2022/01/26 09:54:11;;;;;;;1999.90;999.90;;;;;;;4.50;100.00;103251.50;4999733;28;20029;-70
2022/01/26 09:56:37;;;;;;;1999.90;999.90;;;;;;;4.63;100.00;103250.88;5015663;28;20065;-70
2022/01/26 09:59:02;;;;;;;1999.90;999.90;;;;;;;4.59;100.00;103247.31;5002429;28;20026;-69
2022/01/26 10:01:39;;;;;;;1999.90;999.90;;;;;;;4.66;100.00;103238.66;4998321;28;20474;-70
2022/01/26 10:04:04;;;;;;;1999.90;999.90;;;;;;;4.62;100.00;103222.78;5005909;28;20027;-69
2022/01/26 10:06:31;;;;;;;1999.90;999.90;;;;;;;4.66;100.00;103233.38;4996640;28;20049;-69
2022/01/26 10:09:26;;;;;;;1999.90;999.90;;;;;;;4.72;100.00;103224.75;5007052;28;20389;-69
2022/01/26 10:17:27;;;;;;;1999.90;999.90;;;;;;;5.00;100.00;103250.72;4996550;28;20065;-70
2022/01/26 10:20:00;;;;;;;1999.90;999.90;;;;;;;4.97;100.00;103266.47;5013713;28;20083;-70
2022/01/26 10:22:27;;;;;;;1999.90;999.90;;;;;;;4.94;100.00;103260.25;5013512;28;20084;-69
2022/01/26 10:25:04;;;;;;;1999.90;999.90;;;;;;;4.96;100.00;103264.69;5013457;28;20079;-68
2022/01/26 10:27:56;;;;;;;1999.90;999.90;;;;;;;4.94;100.00;103265.50;5027760;28;20085;-69
2022/01/26 10:30:21;;;;;;;1999.90;999.90;;;;;;;4.81;100.00;103264.38;5006780;28;20539;-72
2022/01/26 10:32:47;;;;;;;1999.90;999.90;;;;;;;5.03;100.00;103265.72;5014897;28;20125;-70
2022/01/26 10:35:15;;;;;;;1999.90;999.90;;;;;;;5.03;100.00;103250.78;5014410;28;20054;-69
2022/01/26 10:37:55;;;;;;;1999.90;999.90;;;;;;;5.01;100.00;103263.00;5014702;28;20038;-70
2022/01/26 10:40:24;;;;;;;1999.90;999.90;;;;;;;5.11;100.00;103264.97;5014398;28;20112;-70
2022/01/26 10:43:06;;;;;;;1999.90;999.90;;;;;;;5.23;100.00;103265.16;5012928;28;20046;-70
2022/01/26 10:45:45;;;;;;;1999.90;999.90;;;;;;;5.29;100.00;103264.41;5013010;28;20034;-69
2022/01/26 10:48:23;;;;;;;1999.90;999.90;;;;;;;5.33;100.00;103260.94;5009308;28;20026;-69
2022/01/26 10:53:39;;;;;;;1999.90;999.90;;;;;;;5.45;100.00;103246.22;4995704;28;20180;-69
2022/01/26 10:56:05;;;;;;;1999.90;999.90;;;;;;;5.37;100.00;103245.25;4997983;28;20042;-70
2022/01/26 10:58:31;;;;;;;1999.90;999.90;;;;;;;5.62;100.00;103239.50;5014214;28;20022;-69
2022/01/26 11:00:57;;;;;;;1999.90;999.90;;;;;;;5.73;100.00;103237.94;5013927;28;20030;-69
2022/01/26 11:03:22;;;;;;;1999.90;999.90;;;;;;;5.47;100.00;103236.63;5012029;28;20485;-70
2022/01/26 11:05:48;;;;;;;1999.90;999.90;;;;;;;5.56;100.00;103238.53;5017596;28;20026;-70
2022/01/26 11:08:39;;;;;;;1999.90;999.90;;;;;;;5.78;100.00;103228.31;5017449;28;20034;-70
2022/01/26 11:11:22;;;;;;;1999.90;999.90;;;;;;;5.74;100.00;103228.25;5012491;28;20035;-70
2022/01/26 11:13:47;;;;;;;1999.90;999.90;;;;;;;5.85;100.00;103216.13;5005516;28;20096;-69
2022/01/26 11:16:23;;;;;;;1999.90;999.90;;;;;;;5.78;100.00;103220.41;4996618;28;20026;-69
2022/01/26 11:18:54;;;;;;;1999.90;999.90;;;;;;;5.85;100.00;103222.31;5015371;28;20047;-70
2022/01/26 11:21:35;;;;;;;1999.90;999.90;;;;;;;5.64;100.00;103226.34;5017285;28;20105;-70
2022/01/26 11:24:06;;;;;;;1999.90;999.90;;;;;;;5.95;100.00;103221.59;5017411;28;20030;-69
2022/01/26 11:26:32;;;;;;;1999.90;999.90;;;;;;;5.82;100.00;103224.91;5015513;28;20026;-69
2022/01/26 11:28:57;;;;;;;1999.90;999.90;;;;;;;5.90;100.00;103225.91;4996747;28;20038;-71
2022/01/26 11:31:24;;;;;;;1999.90;999.90;;;;;;;6.07;100.00;103223.47;4997235;28;20413;-69
2022/01/26 11:33:50;;;;;;;1999.90;999.90;;;;;;;6.03;100.00;103221.69;5013738;28;20030;-69
2022/01/26 11:36:17;;;;;;;1999.90;999.90;;;;;;;6.18;100.00;103217.50;5015329;28;20131;-69
2022/01/26 11:47:18;;;;;;;1999.90;999.90;;;;;;;6.03;100.00;103198.84;4999521;28;20042;-70
2022/01/26 11:49:45;;;;;;;1999.90;999.90;;;;;;;6.07;100.00;103202.38;5016349;28;20026;-70
2022/01/26 11:52:27;;;;;;;1999.90;999.90;;;;;;;6.40;100.00;103204.56;5007868;28;20050;-70
2022/01/26 11:54:56;;;;;;;1999.90;999.90;;;;;;;6.33;100.00;103193.06;4995688;28;20037;-70
2022/01/26 11:57:46;;;;;;;1999.90;999.90;;;;;;;6.30;100.00;103200.03;5010329;28;20029;-70
2022/01/26 12:00:17;;;;;;;1999.90;999.90;;;;;;;6.46;100.00;103187.03;5016575;28;20076;-75
2022/01/26 12:05:11;;;;;;;1999.90;999.90;;;;;;;6.19;100.00;103200.78;5018047;28;20048;-70
2022/01/26 12:07:47;;;;;;;1999.90;999.90;;;;;;;6.38;100.00;103190.47;5013057;28;20026;-71
2022/01/26 12:10:23;;;;;;;1999.90;999.90;;;;;;;6.37;100.00;103194.00;5009191;28;20037;-71
2022/01/26 12:13:01;;;;;;;1999.90;999.90;;;;;;;6.42;100.00;103205.47;5017199;28;20022;-70
2022/01/26 12:15:30;;;;;;;1999.90;999.90;;;;;;;6.22;100.00;103208.72;5010255;28;20029;-71
2022/01/26 12:18:12;;;;;;;1999.90;999.90;;;;;;;6.30;100.00;103208.84;5012250;28;20049;-69
2022/01/26 12:39:15;;;;;;;1999.90;999.90;;;;;;;6.48;100.00;103184.41;5015296;28;20034;-70
2022/01/26 12:41:48;;;;;;;1999.90;999.90;;;;;;;6.33;100.00;103179.88;5016700;28;20030;-71
2022/01/26 12:44:13;;;;;;;1999.90;999.90;;;;;;;6.57;100.00;103180.13;5017788;28;20026;-72
2022/01/26 12:46:40;;;;;;;1999.90;999.90;;;;;;;6.32;100.00;103183.34;5016411;28;20025;-72
2022/01/26 12:49:22;;;;;;;1999.90;999.90;;;;;;;6.36;100.00;103176.34;5013108;28;20037;-71
2022/01/26 12:51:52;;;;;;;1999.90;999.90;;;;;;;6.29;100.00;103177.19;5004452;28;20385;-70
2022/01/26 12:54:49;;;;;;;1999.90;999.90;;;;;;;6.39;100.00;103168.47;5019563;28;20030;-70
2022/01/26 12:57:14;;;;;;;1999.90;999.90;;;;;;;6.26;100.00;103174.50;5000776;28;20034;-71
2022/01/26 12:59:40;;;;;;;1999.90;999.90;;;;;;;6.26;100.00;103171.84;5003951;28;20021;-70
2022/01/26 13:02:05;;;;;;;1999.90;999.90;;;;;;;6.29;100.00;103172.75;5003808;28;20497;-70
2022/01/26 13:04:30;;;;;;;1999.90;999.90;;;;;;;6.37;100.00;103175.50;5006280;28;20030;-70
2022/01/26 13:06:56;;;;;;;1999.90;999.90;;;;;;;6.23;100.00;103167.41;5005855;28;20023;-70
2022/01/26 13:09:25;;;;;;;1999.90;999.90;;;;;;;6.17;100.00;103168.25;5004808;28;20030;-70
2022/01/26 13:11:54;;;;;;;1999.90;999.90;;;;;;;6.18;100.00;103164.72;5003635;28;20169;-69
2022/01/26 13:14:28;;;;;;;1999.90;999.90;;;;;;;6.22;100.00;103155.97;5003366;28;20100;-69
2022/01/26 13:17:06;;;;;;;1999.90;999.90;;;;;;;6.33;100.00;103155.22;4999606;28;20030;-69
2022/01/26 13:19:47;;;;;;;1999.90;999.90;;;;;;;6.39;100.00;103158.81;5001051;28;20041;-69
2022/01/26 13:26:05;;;;;;;1999.90;999.90;;;;;;;6.51;100.00;103158.06;5014928;28;20045;-71
2022/01/26 13:33:56;;;;;;;1999.90;999.90;;;;;;;6.58;100.00;103146.69;5010108;28;20045;-70
2022/01/26 13:41:56;;;;;;;1999.90;999.90;;;;;;;6.27;100.00;103137.56;5002471;28;20125;-68
2022/01/26 13:44:56;;;;;;;1999.90;999.90;;;;;;;6.48;100.00;103131.59;5006880;28;20025;-69
2022/01/26 13:47:43;;;;;;;1999.90;999.90;;;;;;;6.47;100.00;103128.09;5002003;28;20034;-70
2022/01/26 13:50:23;;;;;;;1999.90;999.90;;;;;;;6.47;100.00;103117.56;5003743;28;20030;-70
2022/01/26 13:53:03;;;;;;;1999.90;999.90;;;;;;;6.45;100.00;103126.31;4999669;28;20042;-70